createdAt,value
2022-08-02T00:01:53.543Z,1.80
2022-08-02T00:04:21.701Z,1.80
2022-08-02T00:06:49.735Z,2.00
2022-08-02T00:09:17.702Z,2.20
2022-08-02T00:11:49.287Z,1.80
2022-08-02T00:14:17.275Z,1.90
2022-08-02T00:16:45.216Z,1.90
2022-08-02T00:19:14.500Z,2.00
2022-08-02T00:21:42.742Z,1.80
2022-08-02T00:24:29.261Z,2.07
2022-08-02T00:26:58.299Z,1.63
2022-08-02T00:29:26.245Z,1.83
2022-08-02T00:31:54.224Z,3.23
2022-08-02T00:34:28.467Z,2.00
2022-08-02T00:36:59.237Z,2.83
2022-08-02T00:39:34.985Z,2.10
2022-08-02T00:42:04.333Z,2.10
2022-08-02T00:44:32.351Z,2.10
2022-08-02T00:47:00.290Z,2.30
2022-08-02T00:49:29.869Z,1.90
2022-08-02T00:51:57.917Z,2.30
2022-08-02T00:54:25.847Z,2.40
2022-08-02T00:56:53.995Z,1.90
2022-08-02T00:59:21.932Z,1.87
2022-08-02T01:01:57.440Z,1.90
2022-08-02T01:04:30.466Z,1.90
2022-08-02T01:07:12.282Z,2.00
2022-08-02T01:09:42.175Z,1.80
2022-08-02T01:12:10.888Z,1.50
2022-08-02T01:14:39.904Z,1.80
2022-08-02T01:17:13.569Z,1.90
2022-08-02T01:19:48.152Z,1.93
2022-08-02T01:23:03.587Z,1.50
2022-08-02T01:25:51.385Z,1.80
2022-08-02T01:28:34.233Z,1.83
2022-08-02T01:31:09.105Z,1.60
2022-08-02T01:33:41.709Z,1.80
2022-08-02T01:36:12.896Z,1.47
2022-08-02T01:38:44.541Z,2.10
2022-08-02T01:41:19.008Z,1.70
2022-08-02T01:43:50.671Z,1.60
2022-08-02T01:46:19.982Z,1.77
2022-08-02T01:48:50.371Z,1.70
2022-08-02T01:51:41.049Z,1.70
2022-08-02T01:54:12.500Z,1.60
2022-08-02T01:56:41.616Z,1.90
2022-08-02T01:59:14.852Z,1.57
2022-08-02T02:01:43.958Z,1.23
2022-08-02T02:04:16.086Z,1.43
2022-08-02T02:06:45.895Z,1.67
2022-08-02T02:09:16.572Z,1.80
2022-08-02T02:12:05.310Z,1.80
2022-08-02T02:14:37.310Z,1.40
2022-08-02T02:17:06.595Z,1.47
2022-08-02T02:19:36.885Z,1.77
2022-08-02T02:22:05.478Z,1.70
2022-08-02T02:24:35.946Z,1.80
2022-08-02T02:27:07.497Z,1.50
2022-08-02T02:29:39.415Z,1.50
2022-08-02T02:32:08.027Z,1.40
2022-08-02T02:34:40.246Z,1.47
2022-08-02T02:37:14.713Z,1.33
2022-08-02T02:39:45.124Z,1.57
2022-08-02T02:42:17.170Z,1.40
2022-08-02T02:44:48.226Z,1.47
2022-08-02T02:47:17.944Z,1.30
2022-08-02T02:49:48.620Z,2.03
2022-08-02T02:52:17.990Z,1.50
2022-08-02T02:54:49.103Z,1.63
2022-08-02T02:57:18.094Z,1.57
2022-08-02T02:59:49.769Z,1.70
2022-08-02T03:02:18.904Z,1.53
2022-08-02T03:04:57.390Z,2.03
2022-08-02T03:07:26.895Z,1.80
2022-08-02T03:09:55.279Z,1.70
2022-08-02T03:12:30.952Z,1.83
2022-08-02T03:15:03.702Z,1.90
2022-08-02T03:17:45.844Z,2.50
2022-08-02T03:20:15.858Z,1.77
2022-08-02T03:22:45.074Z,1.80
2022-08-02T03:25:14.760Z,1.60
2022-08-02T03:27:43.008Z,1.77
2022-08-02T03:30:14.446Z,1.73
2022-08-02T03:32:45.610Z,1.90
2022-08-02T03:35:21.327Z,1.87
2022-08-02T03:37:53.070Z,1.70
2022-08-02T03:40:21.930Z,1.67
2022-08-02T03:42:50.663Z,2.00
2022-08-02T03:45:20.850Z,1.87
2022-08-02T03:47:49.146Z,1.70
2022-08-02T03:50:18.287Z,1.90
2022-08-02T03:52:46.757Z,1.57
2022-08-02T03:55:15.334Z,1.63
2022-08-02T03:57:44.180Z,1.77
2022-08-02T04:00:18.323Z,2.10
2022-08-02T04:02:47.988Z,2.03
2022-08-02T04:05:16.620Z,1.90
2022-08-02T04:08:33.296Z,1.50
2022-08-02T04:10:53.965Z,2.10
2022-08-02T04:13:25.574Z,1.60
2022-08-02T04:16:00.429Z,1.83
2022-08-02T04:18:35.861Z,1.83
2022-08-02T04:21:07.207Z,1.50
2022-08-02T04:23:37.677Z,1.83
2022-08-02T04:26:08.688Z,1.90
2022-08-02T04:28:39.914Z,1.90
2022-08-02T04:31:08.615Z,1.33
2022-08-02T04:33:38.492Z,2.00
2022-08-02T04:36:08.046Z,1.67
2022-08-02T04:38:36.248Z,1.90
2022-08-02T04:41:04.209Z,1.80
2022-08-02T04:43:32.215Z,1.97
2022-08-02T04:46:02.756Z,2.13
2022-08-02T04:48:31.143Z,1.90
2022-08-02T04:51:00.782Z,1.70
2022-08-02T04:53:28.776Z,2.03
2022-08-02T04:55:56.734Z,1.93
2022-08-02T04:58:39.882Z,1.77
2022-08-02T05:01:08.839Z,1.70
2022-08-02T05:03:36.866Z,2.17
2022-08-02T05:06:18.741Z,2.17
2022-08-02T05:08:52.661Z,2.10
2022-08-02T05:11:21.518Z,2.10
2022-08-02T05:13:57.705Z,1.93
2022-08-02T05:16:31.452Z,2.03
2022-08-02T05:19:00.052Z,2.20
2022-08-02T05:21:29.401Z,2.00
2022-08-02T05:23:57.729Z,2.00
2022-08-02T05:26:25.630Z,2.00
2022-08-02T05:28:53.598Z,1.90
2022-08-02T05:31:21.573Z,1.87
2022-08-02T05:33:49.525Z,1.87
2022-08-02T05:36:17.662Z,1.87
2022-08-02T05:38:49.707Z,2.30
2022-08-02T05:41:18.081Z,1.93
2022-08-02T05:43:46.170Z,2.07
2022-08-02T05:46:14.217Z,2.07
2022-08-02T05:48:42.233Z,2.17
2022-08-02T05:51:13.589Z,2.10
2022-08-02T05:53:50.009Z,2.37
2022-08-02T05:56:33.900Z,2.40
2022-08-02T05:59:05.633Z,2.50
2022-08-02T06:01:36.771Z,2.67
2022-08-02T06:04:08.324Z,2.30
2022-08-02T06:06:37.430Z,2.60
2022-08-02T06:09:15.681Z,2.10
2022-08-02T06:12:01.583Z,2.03
2022-08-02T06:14:34.745Z,2.10
2022-08-02T06:17:05.780Z,2.50
2022-08-02T06:19:36.663Z,2.50
2022-08-02T06:22:35.815Z,2.43
2022-08-02T06:25:11.827Z,2.40
2022-08-02T06:27:56.050Z,2.50
2022-08-02T06:30:24.214Z,3.00
2022-08-02T06:32:53.286Z,3.00
2022-08-02T06:35:21.613Z,2.70
2022-08-02T06:37:58.385Z,2.60
2022-08-02T06:40:31.633Z,2.70
2022-08-02T06:43:11.766Z,2.47
2022-08-02T06:45:40.405Z,3.40
2022-08-02T06:48:09.166Z,2.90
2022-08-02T06:50:38.260Z,2.93
2022-08-02T06:53:06.624Z,2.77
2022-08-02T06:55:43.414Z,2.53
2022-08-02T06:58:13.694Z,3.03
2022-08-02T07:00:44.889Z,2.23
2022-08-02T07:03:13.486Z,2.77
2022-08-02T07:05:43.719Z,2.70
2022-08-02T07:08:12.180Z,3.00
2022-08-02T07:10:42.311Z,2.70
2022-08-02T07:13:10.477Z,2.67
2022-08-02T07:15:39.098Z,2.90
2022-08-02T07:18:15.744Z,2.90
2022-08-02T07:20:43.901Z,2.50
2022-08-02T07:23:11.876Z,2.90
2022-08-02T07:26:02.977Z,2.83
2022-08-02T07:28:30.246Z,3.50
2022-08-02T07:30:58.222Z,3.23
2022-08-02T07:33:37.559Z,3.40
2022-08-02T07:36:16.859Z,3.47
2022-08-02T07:38:51.894Z,3.43
2022-08-02T07:41:22.642Z,3.07
2022-08-02T07:43:51.366Z,4.43
2022-08-02T07:46:19.314Z,3.50
2022-08-02T07:48:49.069Z,3.30
2022-08-02T07:51:17.491Z,3.87
2022-08-02T07:53:50.941Z,3.60
2022-08-02T07:56:31.339Z,3.77
2022-08-02T07:58:59.251Z,3.90
2022-08-02T08:01:27.241Z,3.83
2022-08-02T08:03:55.173Z,5.10
2022-08-02T08:06:28.786Z,4.53
2022-08-02T08:08:57.189Z,4.33
2022-08-02T08:11:25.684Z,4.50
2022-08-02T08:13:55.041Z,4.40
2022-08-02T08:16:23.182Z,4.40
2022-08-02T08:18:51.130Z,4.53
2022-08-02T08:21:19.319Z,4.63
2022-08-02T08:23:47.317Z,4.57
2022-08-02T08:26:16.195Z,4.95
2022-08-02T08:28:44.256Z,5.17
2022-08-02T08:31:13.820Z,5.67
2022-08-02T08:33:41.933Z,5.17
2022-08-02T08:36:09.970Z,6.30
2022-08-02T08:38:38.071Z,6.67
2022-08-02T08:41:06.053Z,6.53
2022-08-02T08:43:36.455Z,6.20
2022-08-02T08:46:04.570Z,5.13
2022-08-02T08:48:38.248Z,6.00
2022-08-02T08:51:11.515Z,5.90
2022-08-02T08:53:43.605Z,5.78
2022-08-02T08:56:16.246Z,6.13
2022-08-02T08:58:45.317Z,5.57
2022-08-02T09:01:15.047Z,5.50
2022-08-02T09:03:45.203Z,5.50
2022-08-02T09:06:13.362Z,4.55
2022-08-02T09:08:42.291Z,4.30
2022-08-02T09:11:17.964Z,4.37
2022-08-02T09:13:55.134Z,4.10
2022-08-02T09:16:31.468Z,3.65
2022-08-02T09:19:02.025Z,3.60
2022-08-02T09:21:38.197Z,3.33
2022-08-02T09:24:20.777Z,3.57
2022-08-02T09:26:49.815Z,3.08
2022-08-02T09:29:20.179Z,2.72
2022-08-02T09:31:50.217Z,3.00
2022-08-02T09:34:20.396Z,2.90
2022-08-02T09:36:48.877Z,2.95
2022-08-02T09:39:23.866Z,2.75
2022-08-02T09:41:51.847Z,2.95
2022-08-02T09:44:20.149Z,3.50
2022-08-02T09:46:48.922Z,3.08
2022-08-02T09:49:20.337Z,2.95
2022-08-02T09:51:51.603Z,3.22
2022-08-02T09:54:21.141Z,3.20
2022-08-02T09:56:51.759Z,3.60
2022-08-02T09:59:21.232Z,3.28
2022-08-02T10:01:58.954Z,3.40
2022-08-02T10:04:39.225Z,3.78
2022-08-02T10:07:22.552Z,3.20
2022-08-02T10:09:52.074Z,3.38
2022-08-02T10:12:22.281Z,4.35
2022-08-02T10:14:52.590Z,3.67
2022-08-02T10:17:21.872Z,3.78
2022-08-02T10:20:02.373Z,3.95
2022-08-02T10:22:33.304Z,4.13
2022-08-02T10:25:04.527Z,4.85
2022-08-02T10:27:55.115Z,4.57
2022-08-02T10:30:24.289Z,4.45
2022-08-02T10:32:55.130Z,5.35
2022-08-02T10:35:26.749Z,4.95
2022-08-02T10:38:01.170Z,4.75
2022-08-02T10:40:48.046Z,5.75
2022-08-02T10:43:42.209Z,5.20
2022-08-02T10:46:31.269Z,5.32
2022-08-02T10:52:09.524Z,5.53
2022-08-02T10:54:40.229Z,5.22
2022-08-02T10:57:22.927Z,5.00
2022-08-02T10:59:53.665Z,4.80
2022-08-02T11:02:42.998Z,5.05
2022-08-02T11:05:14.266Z,4.45
2022-08-02T11:07:49.129Z,4.50
2022-08-02T11:10:33.142Z,4.35
2022-08-02T11:13:04.453Z,3.65
2022-08-02T11:16:01.271Z,4.03
2022-08-02T11:19:03.921Z,4.00
2022-08-02T11:21:36.021Z,4.03
2022-08-02T11:24:28.699Z,3.70
2022-08-02T11:26:57.883Z,3.50
2022-08-02T11:29:38.208Z,3.50
2022-08-02T11:32:08.213Z,3.70
2022-08-02T11:34:38.012Z,3.60
2022-08-02T11:37:07.664Z,3.28
2022-08-02T11:39:37.142Z,2.92
2022-08-02T11:42:05.990Z,3.25
2022-08-02T11:44:42.447Z,2.85
2022-08-02T11:47:10.508Z,2.90
2022-08-02T11:49:38.808Z,2.90
2022-08-02T11:52:10.847Z,2.67
2022-08-02T11:54:42.030Z,3.63
2022-08-02T11:57:15.615Z,3.15
2022-08-02T11:59:50.054Z,2.85
2022-08-02T12:02:19.005Z,2.97
2022-08-02T12:04:58.131Z,2.40
2022-08-02T12:07:34.501Z,2.50
2022-08-02T12:10:07.074Z,2.53
2022-08-02T12:12:35.165Z,2.83
2022-08-02T12:15:03.331Z,3.10
2022-08-02T12:17:48.926Z,2.60
2022-08-02T12:20:17.686Z,2.38
2022-08-02T12:22:45.797Z,3.35
2022-08-02T12:25:33.971Z,2.75
2022-08-02T12:28:26.701Z,3.08
2022-08-02T12:30:58.055Z,3.10
2022-08-02T12:33:28.904Z,4.93
2022-08-02T12:35:58.294Z,3.55
2022-08-02T12:38:26.337Z,3.30
2022-08-02T12:40:55.833Z,3.60
2022-08-02T12:43:26.302Z,3.40
2022-08-02T12:45:57.542Z,3.25
2022-08-02T12:48:38.300Z,3.05
2022-08-02T12:51:24.248Z,3.13
2022-08-02T12:53:59.938Z,2.28
2022-08-02T12:56:32.141Z,2.42
2022-08-02T12:59:05.251Z,3.00
2022-08-02T13:01:33.690Z,2.40
2022-08-02T13:04:09.110Z,2.97
2022-08-02T13:06:44.883Z,2.90
2022-08-02T13:09:16.302Z,3.17
2022-08-02T13:11:46.117Z,2.63
2022-08-02T13:14:15.606Z,2.40
2022-08-02T13:16:49.864Z,2.22
2022-08-02T13:19:18.540Z,2.40
2022-08-02T13:22:01.254Z,2.70
2022-08-02T13:24:40.759Z,2.42
2022-08-02T13:27:22.287Z,2.33
2022-08-02T13:29:52.336Z,2.17
2022-08-02T13:32:22.749Z,2.08
2022-08-02T13:34:50.791Z,2.40
2022-08-02T13:37:19.577Z,2.30
2022-08-02T13:40:05.619Z,2.33
2022-08-02T13:42:38.468Z,2.50
2022-08-02T13:45:12.555Z,2.00
2022-08-02T13:48:03.505Z,2.08
2022-08-02T13:50:31.421Z,2.00
2022-08-02T13:52:59.493Z,2.13
2022-08-02T13:55:28.170Z,2.50
2022-08-02T13:57:58.353Z,2.28
2022-08-02T14:00:35.446Z,2.00
2022-08-02T14:03:05.278Z,2.22
2022-08-02T14:05:46.840Z,2.83
2022-08-02T14:08:18.348Z,2.40
2022-08-02T14:10:47.291Z,2.78
2022-08-02T14:13:16.928Z,2.20
2022-08-02T14:15:45.511Z,2.55
2022-08-02T14:18:18.162Z,2.10
2022-08-02T14:20:46.692Z,2.50
2022-08-02T14:23:15.153Z,2.50
2022-08-02T14:25:43.363Z,2.58
2022-08-02T14:28:14.879Z,2.05
2022-08-02T14:30:44.300Z,2.30
2022-08-02T14:33:12.894Z,2.42
2022-08-02T14:35:43.824Z,2.28
2022-08-02T14:38:11.907Z,2.30
2022-08-02T14:40:40.366Z,2.35
2022-08-02T14:43:09.149Z,2.33
2022-08-02T14:45:41.023Z,2.05
2022-08-02T14:48:12.994Z,2.13
2022-08-02T14:50:41.201Z,2.15
2022-08-02T14:53:13.252Z,2.00
2022-08-02T14:58:18.201Z,2.00
2022-08-02T15:00:46.298Z,1.73
2022-08-02T15:03:15.835Z,1.63
2022-08-02T15:05:43.900Z,2.33
2022-08-02T15:08:11.855Z,1.90
2022-08-02T15:10:45.410Z,1.85
2022-08-02T15:13:13.452Z,1.75
2022-08-02T15:15:43.535Z,1.60
2022-08-02T15:18:16.733Z,1.75
2022-08-02T15:20:57.183Z,1.77
2022-08-02T15:23:37.328Z,1.55
2022-08-02T15:26:08.945Z,1.88
2022-08-02T15:28:38.683Z,1.75
2022-08-02T15:31:06.734Z,2.05
2022-08-02T15:33:37.864Z,1.85
2022-08-02T15:36:06.802Z,1.63
2022-08-02T15:38:39.497Z,1.92
2022-08-02T15:41:09.695Z,1.55
2022-08-02T15:43:45.559Z,1.98
2022-08-02T15:46:30.912Z,1.75
2022-08-02T15:49:02.613Z,1.90
2022-08-02T15:51:31.445Z,1.83
2022-08-02T15:53:59.529Z,2.05
2022-08-02T15:56:27.522Z,1.98
2022-08-02T15:58:56.803Z,1.75
2022-08-02T16:01:36.888Z,1.98
2022-08-02T16:04:08.180Z,2.10
2022-08-02T16:06:39.123Z,1.52
2022-08-02T16:09:08.299Z,1.23
2022-08-02T16:11:36.362Z,1.40
2022-08-02T16:14:04.504Z,1.52
2022-08-02T16:16:37.078Z,1.52
2022-08-02T16:19:46.729Z,1.60
2022-08-02T16:21:56.390Z,1.50
2022-08-02T16:24:24.564Z,2.00
2022-08-02T16:26:52.827Z,1.80
2022-08-02T16:29:21.081Z,1.60
2022-08-02T16:31:49.373Z,1.70
2022-08-02T16:34:18.837Z,1.52
2022-08-02T16:36:47.907Z,1.90
2022-08-02T16:39:16.132Z,1.58
2022-08-02T16:41:51.830Z,2.05
2022-08-02T16:44:27.136Z,1.45
2022-08-02T16:47:01.233Z,1.83
2022-08-02T16:50:06.108Z,1.40
2022-08-02T16:52:19.943Z,1.55
2022-08-02T16:57:43.219Z,0.90
2022-08-02T17:00:16.221Z,1.50
2022-08-02T17:02:44.427Z,1.27
2022-08-02T17:05:16.707Z,1.10
2022-08-02T17:08:15.614Z,1.70
2022-08-02T17:10:35.465Z,1.55
2022-08-02T17:13:11.159Z,1.30
2022-08-02T17:16:08.729Z,1.33
2022-08-02T17:18:29.565Z,1.20
2022-08-02T17:21:01.527Z,1.40
2022-08-02T17:23:47.048Z,1.30
2022-08-02T17:26:17.634Z,1.30
2022-08-02T17:29:14.426Z,1.35
2022-08-02T17:31:42.115Z,1.35
2022-08-02T17:34:11.736Z,1.20
2022-08-02T17:36:41.678Z,1.30
2022-08-02T17:39:09.720Z,1.17
2022-08-02T17:41:49.131Z,1.63
2022-08-02T17:44:36.603Z,1.30
2022-08-02T17:47:11.619Z,1.58
2022-08-02T17:49:43.935Z,2.55
2022-08-02T17:52:50.720Z,1.60
2022-08-02T17:55:03.667Z,1.42
2022-08-02T17:57:57.281Z,1.52
2022-08-02T18:00:21.978Z,1.38
2022-08-02T18:02:55.272Z,1.48
2022-08-02T18:05:39.950Z,1.80
2022-08-02T18:08:15.337Z,1.50
2022-08-02T18:10:46.812Z,1.23
2022-08-02T18:13:14.924Z,1.45
2022-08-02T18:15:45.685Z,1.33
2022-08-02T18:18:14.555Z,1.42
2022-08-02T18:20:45.727Z,1.38
2022-08-02T18:23:15.964Z,1.52
2022-08-02T18:25:46.881Z,1.83
2022-08-02T18:28:17.458Z,1.83
2022-08-02T18:30:45.553Z,1.80
2022-08-02T18:33:58.139Z,1.42
2022-08-02T18:36:04.258Z,1.25
2022-08-02T18:38:33.693Z,1.13
2022-08-02T18:41:12.635Z,1.70
2022-08-02T18:43:45.967Z,1.52
2022-08-02T18:46:15.546Z,1.88
2022-08-02T18:48:46.763Z,1.50
2022-08-02T18:51:16.427Z,1.75
2022-08-02T18:53:51.039Z,1.40
2022-08-02T18:56:24.698Z,1.67
2022-08-02T18:58:52.988Z,1.45
2022-08-02T19:01:21.992Z,1.38
2022-08-02T19:04:01.261Z,1.33
2022-08-02T19:06:30.061Z,1.42
2022-08-02T19:09:05.857Z,1.75
2022-08-02T19:11:41.432Z,1.50
2022-08-02T19:14:28.078Z,1.40
2022-08-02T19:16:58.030Z,1.63
2022-08-02T19:19:31.152Z,1.20
2022-08-02T19:22:18.161Z,1.58
2022-08-02T19:24:56.460Z,1.58
2022-08-02T19:27:32.515Z,1.50
2022-08-02T19:30:04.114Z,1.10
2022-08-02T19:32:41.447Z,1.33
2022-08-02T19:35:30.770Z,1.40
2022-08-02T19:40:57.470Z,1.30
2022-08-02T19:44:23.454Z,1.40
2022-08-02T19:46:16.223Z,1.23
2022-08-02T19:48:46.163Z,1.05
2022-08-02T19:51:15.643Z,1.45
2022-08-02T19:54:03.525Z,1.83
2022-08-02T19:56:32.859Z,1.67
2022-08-02T19:59:02.826Z,1.13
2022-08-02T20:01:45.004Z,1.38
2022-08-02T20:04:22.893Z,1.10
2022-08-02T20:06:51.645Z,1.40
2022-08-02T20:09:23.025Z,1.40
2022-08-02T20:11:55.398Z,1.50
2022-08-02T20:14:26.945Z,1.67
2022-08-02T20:16:55.981Z,1.65
2022-08-02T20:19:28.873Z,1.25
2022-08-02T20:21:59.518Z,1.33
2022-08-02T20:24:29.602Z,1.10
2022-08-02T20:26:59.838Z,1.20
2022-08-02T20:32:23.286Z,1.48
2022-08-02T20:34:52.471Z,1.70
2022-08-02T20:38:00.124Z,1.30
2022-08-02T20:40:10.144Z,1.27
2022-08-02T20:42:47.582Z,1.00
2022-08-02T20:45:16.573Z,1.38
2022-08-02T20:47:45.808Z,1.42
2022-08-02T20:50:36.121Z,1.42
2022-08-02T20:53:04.479Z,1.02
2022-08-02T20:55:33.791Z,1.30
2022-08-02T20:58:04.482Z,1.40
2022-08-02T21:00:32.821Z,1.38
2022-08-02T21:03:00.801Z,1.00
2022-08-02T21:05:54.196Z,1.50
2022-08-02T21:08:21.247Z,1.42
2022-08-02T21:10:52.522Z,1.05
2022-08-02T21:13:24.195Z,1.25
2022-08-02T21:15:56.154Z,1.13
2022-08-02T21:18:34.514Z,0.98
2022-08-02T21:21:09.106Z,1.00
2022-08-02T21:23:37.406Z,1.05
2022-08-02T21:26:06.553Z,1.30
2022-08-02T21:28:44.256Z,1.30
2022-08-02T21:31:14.757Z,1.08
2022-08-02T21:33:58.115Z,1.40
2022-08-02T21:36:30.469Z,1.00
2022-08-02T21:39:05.066Z,1.00
2022-08-02T21:41:50.796Z,0.93
2022-08-02T21:44:22.717Z,1.08
2022-08-02T21:46:55.030Z,0.95
2022-08-02T21:49:27.039Z,0.93
2022-08-02T21:51:55.832Z,1.20
2022-08-02T21:54:23.814Z,1.23
2022-08-02T21:56:53.404Z,1.00
2022-08-02T21:59:25.639Z,0.98
2022-08-02T22:01:56.492Z,0.95
2022-08-02T22:04:25.387Z,1.40
2022-08-02T22:06:53.891Z,1.20
2022-08-02T22:09:44.484Z,1.35
2022-08-02T22:12:16.930Z,1.30
2022-08-02T22:14:55.118Z,1.70
2022-08-02T22:17:49.849Z,0.85
2022-08-02T22:20:14.059Z,1.10
2022-08-02T22:22:43.351Z,1.50
2022-08-02T22:25:31.056Z,0.98
2022-08-02T22:28:34.845Z,1.00
2022-08-02T22:30:50.567Z,1.45
2022-08-02T22:33:38.614Z,1.20
2022-08-02T22:36:11.464Z,0.90
2022-08-02T22:38:44.445Z,0.80
2022-08-02T22:41:13.540Z,1.30
2022-08-02T22:43:42.005Z,0.80
2022-08-02T22:46:15.495Z,1.00
2022-08-02T22:48:44.665Z,1.25
2022-08-02T22:51:13.540Z,1.40
2022-08-02T22:53:41.644Z,1.13
2022-08-02T22:56:09.648Z,1.02
2022-08-02T22:58:50.119Z,1.45
2022-08-02T22:58:52.549Z,1.40
2022-08-02T22:58:55.568Z,1.10
2022-08-02T23:01:26.886Z,0.95
2022-08-02T23:03:54.820Z,1.35
2022-08-02T23:06:23.044Z,0.95
2022-08-02T23:08:51.107Z,1.25
2022-08-02T23:11:19.042Z,0.75
2022-08-02T23:13:46.994Z,1.13
2022-08-02T23:16:37.735Z,1.17
2022-08-02T23:19:24.420Z,1.25
2022-08-02T23:22:01.647Z,1.02
2022-08-02T23:24:33.116Z,1.10
2022-08-02T23:27:01.469Z,1.00
2022-08-02T23:29:29.488Z,1.58
2022-08-02T23:31:57.458Z,0.90
2022-08-02T23:34:28.363Z,1.70
2022-08-02T23:36:56.315Z,1.15
2022-08-02T23:39:24.348Z,1.70
2022-08-02T23:41:55.163Z,1.58
2022-08-02T23:44:23.965Z,1.33
2022-08-02T23:46:52.589Z,1.10
2022-08-02T23:49:21.149Z,1.15
2022-08-02T23:51:51.314Z,1.45
2022-08-02T23:54:19.553Z,1.65
2022-08-02T23:56:48.345Z,1.67
2022-08-02T23:59:16.541Z,1.30
